クアラルンプール の空港の天気 - METARとTAF

クアラルンプール国際空港 ( WMKK / KUL ) - マレーシア スランゴール州セパン
飛行場実況気象(Metar)
観測時間10/24 10:00 MYT (10/24 02:00 UTC)
風向・風速西南西 3m/s
視程10km以上
天気現象
少しの雲 雲底高度 520m
気温27℃
湿度84%
気圧1013hPa
METARWMKK 240200Z 25005KT 200V300 9999 FEW017CB 27/24 Q1013 NOSIG
過去の天気等 Google飛行場航空写真 Wunderground天気予報

過去48時間のMETAR

飛行場予報(TAF)
発表時間: 10/24 07:00 MYT (10/23 23:00 UTC)
予報対象時間: 24日8時 MYT ~ 25日14時 MYT
風向・風速西 3m/s
視程10km以上
少しの雲 雲底高度 550m
24日11時 MYT ~ 24日15時 MYT に 確率 30% で一時的に
視程5000m
天気現象雷雨
少しの積乱雲 雲底高度 520m
全天の4割程度の雲 雲底高度 550m
25日4時 MYT ~ 25日8時 MYT に一時的に
風向・風速不定 1m/s
視程3000m
天気現象雷雨
少しの積乱雲 雲底高度 520m
全天の4割程度の雲 雲底高度 910m
TAF WMKK 232300Z 2400/2506 26006KT 9999 FEW018
PROB30 TEMPO 2403/2407 5000 TSRA FEW017CB SCT018
TEMPO 2420/2500 VRB02KT 3000 TSRA FEW017CB SCT030